sensor_id;sensor_type;location;lat;lon;timestamp;P1;durP1;ratioP1;P2;durP2;ratioP2
26060;SDS011;36331;51.378;0.018;2023-04-01T00:00:53;12.52;;;7.85;;
26060;SDS011;36331;51.378;0.018;2023-04-01T00:03:24;14.00;;;6.68;;
26060;SDS011;36331;51.378;0.018;2023-04-01T00:05:55;18.85;;;7.95;;
26060;SDS011;36331;51.378;0.018;2023-04-01T00:08:25;12.50;;;7.45;;
26060;SDS011;36331;51.378;0.018;2023-04-01T00:10:54;13.38;;;8.23;;
26060;SDS011;36331;51.378;0.018;2023-04-01T00:13:24;15.40;;;7.95;;
26060;SDS011;36331;51.378;0.018;2023-04-01T00:15:54;14.60;;;8.05;;
26060;SDS011;36331;51.378;0.018;2023-04-01T00:18:27;11.10;;;6.40;;
26060;SDS011;36331;51.378;0.018;2023-04-01T00:20:56;13.02;;;7.03;;
26060;SDS011;36331;51.378;0.018;2023-04-01T00:23:26;12.63;;;7.32;;
26060;SDS011;36331;51.378;0.018;2023-04-01T00:25:55;12.52;;;7.03;;
26060;SDS011;36331;51.378;0.018;2023-04-01T00:28:24;13.20;;;6.90;;
26060;SDS011;36331;51.378;0.018;2023-04-01T00:30:53;12.85;;;6.97;;
26060;SDS011;36331;51.378;0.018;2023-04-01T00:33:23;13.07;;;7.45;;
26060;SDS011;36331;51.378;0.018;2023-04-01T00:35:54;20.05;;;9.07;;
26060;SDS011;36331;51.378;0.018;2023-04-01T00:38:23;14.68;;;7.10;;
26060;SDS011;36331;51.378;0.018;2023-04-01T00:40:56;13.00;;;6.97;;
26060;SDS011;36331;51.378;0.018;2023-04-01T00:43:26;12.70;;;7.80;;
26060;SDS011;36331;51.378;0.018;2023-04-01T00:45:55;11.75;;;6.90;;
26060;SDS011;36331;51.378;0.018;2023-04-01T00:48:25;12.80;;;7.75;;
26060;SDS011;36331;51.378;0.018;2023-04-01T00:50:58;15.25;;;8.30;;
26060;SDS011;36331;51.378;0.018;2023-04-01T00:53:28;12.45;;;7.05;;
26060;SDS011;36331;51.378;0.018;2023-04-01T00:56:00;16.30;;;8.88;;
26060;SDS011;36331;51.378;0.018;2023-04-01T00:58:31;13.32;;;6.93;;
26060;SDS011;36331;51.378;0.018;2023-04-01T01:01:02;13.48;;;7.65;;
26060;SDS011;36331;51.378;0.018;2023-04-01T01:03:31;13.40;;;7.38;;
26060;SDS011;36331;51.378;0.018;2023-04-01T01:06:09;14.55;;;7.90;;
26060;SDS011;36331;51.378;0.018;2023-04-01T01:08:45;13.10;;;8.27;;
26060;SDS011;36331;51.378;0.018;2023-04-01T01:11:19;14.43;;;7.47;;
26060;SDS011;36331;51.378;0.018;2023-04-01T01:13:53;13.18;;;8.02;;
26060;SDS011;36331;51.378;0.018;2023-04-01T01:16:28;12.45;;;8.35;;
26060;SDS011;36331;51.378;0.018;2023-04-01T01:19:01;11.65;;;6.80;;
26060;SDS011;36331;51.378;0.018;2023-04-01T01:21:50;16.05;;;8.23;;
26060;SDS011;36331;51.378;0.018;2023-04-01T01:24:30;11.25;;;6.65;;
26060;SDS011;36331;51.378;0.018;2023-04-01T01:27:02;11.40;;;6.55;;
26060;SDS011;36331;51.378;0.018;2023-04-01T01:29:40;10.55;;;6.60;;
26060;SDS011;36331;51.378;0.018;2023-04-01T01:32:14;12.23;;;7.28;;
26060;SDS011;36331;51.378;0.018;2023-04-01T01:34:47;8.35;;;5.97;;
26060;SDS011;36331;51.378;0.018;2023-04-01T01:37:22;9.15;;;5.20;;
26060;SDS011;36331;51.378;0.018;2023-04-01T01:39:53;7.90;;;4.57;;
26060;SDS011;36331;51.378;0.018;2023-04-01T01:42:23;6.57;;;3.38;;
26060;SDS011;36331;51.378;0.018;2023-04-01T01:44:54;6.00;;;3.30;;
26060;SDS011;36331;51.378;0.018;2023-04-01T01:47:25;4.25;;;3.17;;
26060;SDS011;36331;51.378;0.018;2023-04-01T01:49:55;5.88;;;3.05;;
26060;SDS011;36331;51.378;0.018;2023-04-01T01:52:26;6.07;;;2.65;;
26060;SDS011;36331;51.378;0.018;2023-04-01T01:54:56;4.05;;;2.70;;
26060;SDS011;36331;51.378;0.018;2023-04-01T01:57:36;5.18;;;3.28;;
26060;SDS011;36331;51.378;0.018;2023-04-01T02:00:13;3.97;;;2.55;;
26060;SDS011;36331;51.378;0.018;2023-04-01T02:02:44;4.00;;;2.72;;
26060;SDS011;36331;51.378;0.018;2023-04-01T02:05:14;4.22;;;2.35;;
26060;SDS011;36331;51.378;0.018;2023-04-01T02:07:48;4.40;;;2.30;;
26060;SDS011;36331;51.378;0.018;2023-04-01T02:10:22;6.03;;;3.08;;
26060;SDS011;36331;51.378;0.018;2023-04-01T02:12:53;3.90;;;2.40;;
26060;SDS011;36331;51.378;0.018;2023-04-01T02:15:26;4.13;;;2.30;;
26060;SDS011;36331;51.378;0.018;2023-04-01T02:17:58;3.67;;;2.42;;
26060;SDS011;36331;51.378;0.018;2023-04-01T02:20:27;3.15;;;2.47;;
26060;SDS011;36331;51.378;0.018;2023-04-01T02:22:59;3.25;;;2.30;;
26060;SDS011;36331;51.378;0.018;2023-04-01T02:25:29;3.05;;;1.95;;
26060;SDS011;36331;51.378;0.018;2023-04-01T02:27:59;3.88;;;2.42;;
26060;SDS011;36331;51.378;0.018;2023-04-01T02:30:29;3.70;;;2.22;;
26060;SDS011;36331;51.378;0.018;2023-04-01T02:33:01;6.00;;;2.60;;
26060;SDS011;36331;51.378;0.018;2023-04-01T02:35:32;3.90;;;2.75;;
26060;SDS011;36331;51.378;0.018;2023-04-01T02:38:03;3.45;;;2.25;;
26060;SDS011;36331;51.378;0.018;2023-04-01T02:43:02;3.50;;;2.25;;
26060;SDS011;36331;51.378;0.018;2023-04-01T02:45:32;4.38;;;2.50;;
26060;SDS011;36331;51.378;0.018;2023-04-01T02:48:02;4.43;;;1.95;;
26060;SDS011;36331;51.378;0.018;2023-04-01T02:50:31;4.80;;;2.33;;
26060;SDS011;36331;51.378;0.018;2023-04-01T02:53:03;3.25;;;1.88;;
26060;SDS011;36331;51.378;0.018;2023-04-01T02:58:03;3.40;;;2.20;;
26060;SDS011;36331;51.378;0.018;2023-04-01T03:00:33;2.67;;;2.00;;
26060;SDS011;36331;51.378;0.018;2023-04-01T03:03:02;4.65;;;2.33;;
26060;SDS011;36331;51.378;0.018;2023-04-01T03:05:31;3.22;;;1.85;;
26060;SDS011;36331;51.378;0.018;2023-04-01T03:08:02;3.58;;;2.10;;
26060;SDS011;36331;51.378;0.018;2023-04-01T03:10:31;5.28;;;2.97;;
26060;SDS011;36331;51.378;0.018;2023-04-01T03:13:00;3.15;;;2.28;;
26060;SDS011;36331;51.378;0.018;2023-04-01T03:15:29;3.03;;;2.08;;
26060;SDS011;36331;51.378;0.018;2023-04-01T03:17:59;2.88;;;2.00;;
26060;SDS011;36331;51.378;0.018;2023-04-01T03:20:28;3.05;;;1.85;;
26060;SDS011;36331;51.378;0.018;2023-04-01T03:22:57;2.72;;;2.08;;
26060;SDS011;36331;51.378;0.018;2023-04-01T03:25:28;2.85;;;2.55;;
26060;SDS011;36331;51.378;0.018;2023-04-01T03:27:58;3.42;;;2.17;;
26060;SDS011;36331;51.378;0.018;2023-04-01T03:30:29;3.78;;;2.10;;
26060;SDS011;36331;51.378;0.018;2023-04-01T03:32:58;3.25;;;1.83;;
26060;SDS011;36331;51.378;0.018;2023-04-01T03:35:30;2.50;;;1.88;;
26060;SDS011;36331;51.378;0.018;2023-04-01T03:38:00;2.70;;;1.52;;
26060;SDS011;36331;51.378;0.018;2023-04-01T03:40:30;3.30;;;1.55;;
26060;SDS011;36331;51.378;0.018;2023-04-01T03:43:04;2.28;;;1.60;;
26060;SDS011;36331;51.378;0.018;2023-04-01T03:45:40;2.20;;;1.70;;
26060;SDS011;36331;51.378;0.018;2023-04-01T03:48:13;2.53;;;1.88;;
26060;SDS011;36331;51.378;0.018;2023-04-01T03:50:42;2.47;;;1.58;;
26060;SDS011;36331;51.378;0.018;2023-04-01T03:53:12;2.67;;;2.10;;
26060;SDS011;36331;51.378;0.018;2023-04-01T03:58:15;2.42;;;1.80;;
26060;SDS011;36331;51.378;0.018;2023-04-01T04:00:44;2.90;;;1.80;;
26060;SDS011;36331;51.378;0.018;2023-04-01T04:03:14;4.25;;;1.90;;
26060;SDS011;36331;51.378;0.018;2023-04-01T04:05:46;2.78;;;1.98;;
26060;SDS011;36331;51.378;0.018;2023-04-01T04:08:17;2.55;;;1.60;;
26060;SDS011;36331;51.378;0.018;2023-04-01T04:10:54;2.22;;;1.73;;
26060;SDS011;36331;51.378;0.018;2023-04-01T04:13:25;3.55;;;2.00;;
26060;SDS011;36331;51.378;0.018;2023-04-01T04:15:59;2.70;;;1.77;;
26060;SDS011;36331;51.378;0.018;2023-04-01T04:18:30;2.80;;;1.70;;
26060;SDS011;36331;51.378;0.018;2023-04-01T04:21:01;1.92;;;1.40;;
26060;SDS011;36331;51.378;0.018;2023-04-01T04:23:30;2.47;;;1.55;;
26060;SDS011;36331;51.378;0.018;2023-04-01T04:26:02;2.58;;;1.40;;
26060;SDS011;36331;51.378;0.018;2023-04-01T04:28:33;2.58;;;1.50;;
26060;SDS011;36331;51.378;0.018;2023-04-01T04:31:03;3.80;;;1.63;;
26060;SDS011;36331;51.378;0.018;2023-04-01T04:33:35;4.15;;;2.42;;
26060;SDS011;36331;51.378;0.018;2023-04-01T04:36:05;2.17;;;1.20;;
26060;SDS011;36331;51.378;0.018;2023-04-01T04:38:34;2.40;;;1.45;;
26060;SDS011;36331;51.378;0.018;2023-04-01T04:41:07;1.98;;;1.58;;
26060;SDS011;36331;51.378;0.018;2023-04-01T04:43:39;2.17;;;1.48;;
26060;SDS011;36331;51.378;0.018;2023-04-01T04:46:09;2.63;;;1.60;;
26060;SDS011;36331;51.378;0.018;2023-04-01T04:48:39;2.28;;;1.35;;
26060;SDS011;36331;51.378;0.018;2023-04-01T04:51:12;2.15;;;1.30;;
26060;SDS011;36331;51.378;0.018;2023-04-01T04:53:42;4.95;;;1.83;;
26060;SDS011;36331;51.378;0.018;2023-04-01T04:56:12;2.33;;;1.67;;
26060;SDS011;36331;51.378;0.018;2023-04-01T04:58:52;2.25;;;1.55;;
26060;SDS011;36331;51.378;0.018;2023-04-01T05:01:26;1.80;;;1.50;;
26060;SDS011;36331;51.378;0.018;2023-04-01T05:03:56;2.35;;;1.80;;
26060;SDS011;36331;51.378;0.018;2023-04-01T05:06:25;3.33;;;1.80;;
26060;SDS011;36331;51.378;0.018;2023-04-01T05:08:56;2.42;;;1.35;;
26060;SDS011;36331;51.378;0.018;2023-04-01T05:11:26;1.98;;;1.48;;
26060;SDS011;36331;51.378;0.018;2023-04-01T05:13:57;2.10;;;1.17;;
26060;SDS011;36331;51.378;0.018;2023-04-01T05:16:31;2.30;;;1.17;;
26060;SDS011;36331;51.378;0.018;2023-04-01T05:19:00;2.92;;;1.90;;
26060;SDS011;36331;51.378;0.018;2023-04-01T05:21:29;2.22;;;1.50;;
26060;SDS011;36331;51.378;0.018;2023-04-01T05:23:59;1.83;;;1.23;;
26060;SDS011;36331;51.378;0.018;2023-04-01T05:26:31;2.17;;;1.40;;
26060;SDS011;36331;51.378;0.018;2023-04-01T05:29:01;1.33;;;0.82;;
26060;SDS011;36331;51.378;0.018;2023-04-01T05:31:32;3.42;;;1.20;;
26060;SDS011;36331;51.378;0.018;2023-04-01T05:34:03;1.15;;;1.05;;
26060;SDS011;36331;51.378;0.018;2023-04-01T05:36:32;1.40;;;1.05;;
26060;SDS011;36331;51.378;0.018;2023-04-01T05:39:03;1.73;;;1.17;;
26060;SDS011;36331;51.378;0.018;2023-04-01T05:41:34;1.40;;;1.10;;
26060;SDS011;36331;51.378;0.018;2023-04-01T05:44:05;3.95;;;1.30;;
26060;SDS011;36331;51.378;0.018;2023-04-01T05:46:41;1.65;;;1.27;;
26060;SDS011;36331;51.378;0.018;2023-04-01T05:49:20;2.13;;;1.25;;
26060;SDS011;36331;51.378;0.018;2023-04-01T05:51:50;2.83;;;2.08;;
26060;SDS011;36331;51.378;0.018;2023-04-01T05:54:19;2.33;;;2.08;;
26060;SDS011;36331;51.378;0.018;2023-04-01T05:56:48;1.88;;;1.40;;
26060;SDS011;36331;51.378;0.018;2023-04-01T05:59:21;3.20;;;2.47;;
26060;SDS011;36331;51.378;0.018;2023-04-01T06:01:50;4.10;;;1.70;;
26060;SDS011;36331;51.378;0.018;2023-04-01T06:04:20;2.17;;;1.60;;
26060;SDS011;36331;51.378;0.018;2023-04-01T06:06:49;2.78;;;2.10;;
26060;SDS011;36331;51.378;0.018;2023-04-01T06:09:21;2.85;;;1.70;;
26060;SDS011;36331;51.378;0.018;2023-04-01T06:11:57;3.67;;;2.60;;
26060;SDS011;36331;51.378;0.018;2023-04-01T06:14:36;2.97;;;1.80;;
26060;SDS011;36331;51.378;0.018;2023-04-01T06:17:16;3.08;;;2.00;;
26060;SDS011;36331;51.378;0.018;2023-04-01T06:19:48;5.93;;;3.45;;
26060;SDS011;36331;51.378;0.018;2023-04-01T06:22:32;2.65;;;2.20;;
26060;SDS011;36331;51.378;0.018;2023-04-01T06:30:46;3.42;;;1.95;;
26060;SDS011;36331;51.378;0.018;2023-04-01T06:33:31;3.85;;;2.83;;
26060;SDS011;36331;51.378;0.018;2023-04-01T06:36:08;4.88;;;1.90;;
26060;SDS011;36331;51.378;0.018;2023-04-01T06:38:44;2.55;;;2.00;;
26060;SDS011;36331;51.378;0.018;2023-04-01T06:41:32;2.80;;;1.70;;
26060;SDS011;36331;51.378;0.018;2023-04-01T06:44:08;3.65;;;2.22;;
26060;SDS011;36331;51.378;0.018;2023-04-01T06:47:10;4.05;;;2.38;;
26060;SDS011;36331;51.378;0.018;2023-04-01T06:50:04;4.10;;;2.88;;
26060;SDS011;36331;51.378;0.018;2023-04-01T06:52:55;6.53;;;2.60;;
26060;SDS011;36331;51.378;0.018;2023-04-01T06:55:53;3.50;;;2.10;;
26060;SDS011;36331;51.378;0.018;2023-04-01T06:58:37;4.00;;;2.70;;
26060;SDS011;36331;51.378;0.018;2023-04-01T07:01:10;5.07;;;2.55;;
26060;SDS011;36331;51.378;0.018;2023-04-01T07:03:44;6.72;;;3.28;;
26060;SDS011;36331;51.378;0.018;2023-04-01T07:06:19;4.05;;;2.92;;
26060;SDS011;36331;51.378;0.018;2023-04-01T07:08:54;4.80;;;3.45;;
26060;SDS011;36331;51.378;0.018;2023-04-01T07:11:49;5.78;;;3.83;;
26060;SDS011;36331;51.378;0.018;2023-04-01T07:14:39;4.53;;;2.50;;
26060;SDS011;36331;51.378;0.018;2023-04-01T07:17:11;4.13;;;2.95;;
26060;SDS011;36331;51.378;0.018;2023-04-01T07:19:44;5.95;;;2.60;;
26060;SDS011;36331;51.378;0.018;2023-04-01T07:22:18;6.93;;;3.00;;
26060;SDS011;36331;51.378;0.018;2023-04-01T07:25:11;5.20;;;3.10;;
26060;SDS011;36331;51.378;0.018;2023-04-01T07:27:42;4.47;;;2.83;;
26060;SDS011;36331;51.378;0.018;2023-04-01T07:30:14;5.57;;;2.78;;
26060;SDS011;36331;51.378;0.018;2023-04-01T07:32:44;8.38;;;3.03;;
26060;SDS011;36331;51.378;0.018;2023-04-01T07:35:19;6.47;;;2.92;;
26060;SDS011;36331;51.378;0.018;2023-04-01T07:38:05;3.85;;;2.10;;
26060;SDS011;36331;51.378;0.018;2023-04-01T07:40:39;5.80;;;2.70;;
26060;SDS011;36331;51.378;0.018;2023-04-01T07:43:16;6.68;;;2.70;;
26060;SDS011;36331;51.378;0.018;2023-04-01T07:45:58;3.53;;;2.70;;
26060;SDS011;36331;51.378;0.018;2023-04-01T07:48:32;4.22;;;2.47;;
26060;SDS011;36331;51.378;0.018;2023-04-01T07:51:07;5.28;;;2.60;;
26060;SDS011;36331;51.378;0.018;2023-04-01T07:53:41;5.43;;;2.35;;
26060;SDS011;36331;51.378;0.018;2023-04-01T07:56:15;4.70;;;2.70;;
26060;SDS011;36331;51.378;0.018;2023-04-01T07:58:48;3.70;;;2.40;;
26060;SDS011;36331;51.378;0.018;2023-04-01T08:01:45;3.97;;;2.80;;
26060;SDS011;36331;51.378;0.018;2023-04-01T08:04:29;3.72;;;2.30;;
26060;SDS011;36331;51.378;0.018;2023-04-01T08:07:03;4.63;;;3.22;;
26060;SDS011;36331;51.378;0.018;2023-04-01T08:09:43;6.88;;;3.15;;
26060;SDS011;36331;51.378;0.018;2023-04-01T08:12:47;5.03;;;2.60;;
26060;SDS011;36331;51.378;0.018;2023-04-01T08:15:37;5.22;;;3.35;;
26060;SDS011;36331;51.378;0.018;2023-04-01T08:18:27;4.97;;;2.97;;
26060;SDS011;36331;51.378;0.018;2023-04-01T08:20:59;5.65;;;3.53;;
26060;SDS011;36331;51.378;0.018;2023-04-01T08:23:32;7.07;;;3.90;;
26060;SDS011;36331;51.378;0.018;2023-04-01T08:26:04;6.25;;;4.18;;
26060;SDS011;36331;51.378;0.018;2023-04-01T08:28:40;9.98;;;5.05;;
26060;SDS011;36331;51.378;0.018;2023-04-01T08:31:14;7.03;;;3.17;;
26060;SDS011;36331;51.378;0.018;2023-04-01T08:33:46;7.38;;;3.97;;
26060;SDS011;36331;51.378;0.018;2023-04-01T08:36:16;6.60;;;4.20;;
26060;SDS011;36331;51.378;0.018;2023-04-01T08:39:07;10.43;;;4.82;;
26060;SDS011;36331;51.378;0.018;2023-04-01T08:41:42;8.73;;;4.30;;
26060;SDS011;36331;51.378;0.018;2023-04-01T08:44:39;8.10;;;3.53;;
26060;SDS011;36331;51.378;0.018;2023-04-01T08:47:16;7.43;;;4.10;;
26060;SDS011;36331;51.378;0.018;2023-04-01T08:50:02;6.30;;;4.35;;
26060;SDS011;36331;51.378;0.018;2023-04-01T08:53:00;7.18;;;4.00;;
26060;SDS011;36331;51.378;0.018;2023-04-01T08:55:42;7.13;;;3.45;;
26060;SDS011;36331;51.378;0.018;2023-04-01T08:58:33;8.63;;;4.18;;
26060;SDS011;36331;51.378;0.018;2023-04-01T09:01:21;9.07;;;4.65;;
26060;SDS011;36331;51.378;0.018;2023-04-01T09:03:58;5.32;;;3.25;;
26060;SDS011;36331;51.378;0.018;2023-04-01T09:06:33;6.32;;;4.20;;
26060;SDS011;36331;51.378;0.018;2023-04-01T09:09:09;4.95;;;3.55;;
26060;SDS011;36331;51.378;0.018;2023-04-01T09:11:58;6.82;;;3.92;;
26060;SDS011;36331;51.378;0.018;2023-04-01T09:14:47;8.88;;;4.10;;
26060;SDS011;36331;51.378;0.018;2023-04-01T09:17:40;6.95;;;4.03;;
26060;SDS011;36331;51.378;0.018;2023-04-01T09:20:23;7.13;;;3.45;;
26060;SDS011;36331;51.378;0.018;2023-04-01T09:23:10;5.38;;;3.35;;
26060;SDS011;36331;51.378;0.018;2023-04-01T09:25:46;5.72;;;3.00;;
26060;SDS011;36331;51.378;0.018;2023-04-01T09:28:20;5.40;;;3.30;;
26060;SDS011;36331;51.378;0.018;2023-04-01T09:34:11;4.90;;;3.20;;
26060;SDS011;36331;51.378;0.018;2023-04-01T09:37:10;5.05;;;3.15;;
26060;SDS011;36331;51.378;0.018;2023-04-01T09:39:55;4.20;;;3.05;;
26060;SDS011;36331;51.378;0.018;2023-04-01T09:42:41;5.40;;;3.03;;
26060;SDS011;36331;51.378;0.018;2023-04-01T09:45:34;4.95;;;2.90;;
26060;SDS011;36331;51.378;0.018;2023-04-01T09:48:07;4.65;;;2.58;;
26060;SDS011;36331;51.378;0.018;2023-04-01T09:50:40;5.28;;;3.22;;
26060;SDS011;36331;51.378;0.018;2023-04-01T09:53:14;4.18;;;2.20;;
26060;SDS011;36331;51.378;0.018;2023-04-01T09:56:05;4.45;;;2.35;;
26060;SDS011;36331;51.378;0.018;2023-04-01T09:58:51;3.47;;;2.65;;
26060;SDS011;36331;51.378;0.018;2023-04-01T10:02:04;3.67;;;3.00;;
26060;SDS011;36331;51.378;0.018;2023-04-01T10:04:46;5.03;;;2.20;;
26060;SDS011;36331;51.378;0.018;2023-04-01T10:13:05;3.95;;;2.80;;
26060;SDS011;36331;51.378;0.018;2023-04-01T10:18:49;4.78;;;2.90;;
26060;SDS011;36331;51.378;0.018;2023-04-01T10:21:30;5.13;;;2.72;;
26060;SDS011;36331;51.378;0.018;2023-04-01T10:24:23;4.50;;;2.90;;
26060;SDS011;36331;51.378;0.018;2023-04-01T10:41:30;2.20;;;1.73;;
26060;SDS011;36331;51.378;0.018;2023-04-01T10:44:42;3.38;;;1.80;;
26060;SDS011;36331;51.378;0.018;2023-04-01T10:47:37;4.43;;;2.30;;
26060;SDS011;36331;51.378;0.018;2023-04-01T10:50:24;3.13;;;1.90;;
26060;SDS011;36331;51.378;0.018;2023-04-01T10:53:06;3.50;;;1.73;;
26060;SDS011;36331;51.378;0.018;2023-04-01T10:56:15;2.75;;;1.77;;
26060;SDS011;36331;51.378;0.018;2023-04-01T10:59:16;4.25;;;1.92;;
26060;SDS011;36331;51.378;0.018;2023-04-01T11:05:40;2.83;;;1.90;;
26060;SDS011;36331;51.378;0.018;2023-04-01T11:08:23;4.38;;;2.05;;
26060;SDS011;36331;51.378;0.018;2023-04-01T11:14:24;3.33;;;1.90;;
26060;SDS011;36331;51.378;0.018;2023-04-01T11:17:06;3.63;;;1.90;;
26060;SDS011;36331;51.378;0.018;2023-04-01T11:20:06;3.58;;;2.20;;
26060;SDS011;36331;51.378;0.018;2023-04-01T11:22:46;4.78;;;3.38;;
26060;SDS011;36331;51.378;0.018;2023-04-01T11:25:25;8.95;;;4.18;;
26060;SDS011;36331;51.378;0.018;2023-04-01T11:31:19;6.53;;;4.13;;
26060;SDS011;36331;51.378;0.018;2023-04-01T11:33:53;10.95;;;3.72;;
26060;SDS011;36331;51.378;0.018;2023-04-01T11:36:32;6.40;;;3.83;;
26060;SDS011;36331;51.378;0.018;2023-04-01T11:39:19;7.47;;;3.92;;
26060;SDS011;36331;51.378;0.018;2023-04-01T11:42:14;9.82;;;4.10;;
26060;SDS011;36331;51.378;0.018;2023-04-01T11:45:07;6.28;;;3.67;;
26060;SDS011;36331;51.378;0.018;2023-04-01T11:47:56;10.40;;;5.30;;
26060;SDS011;36331;51.378;0.018;2023-04-01T11:50:33;9.35;;;4.57;;
26060;SDS011;36331;51.378;0.018;2023-04-01T11:53:15;6.80;;;4.28;;
26060;SDS011;36331;51.378;0.018;2023-04-01T11:55:51;8.82;;;4.03;;
26060;SDS011;36331;51.378;0.018;2023-04-01T11:58:35;6.25;;;3.38;;
26060;SDS011;36331;51.378;0.018;2023-04-01T12:01:14;7.50;;;3.60;;
26060;SDS011;36331;51.378;0.018;2023-04-01T12:03:54;5.57;;;3.42;;
26060;SDS011;36331;51.378;0.018;2023-04-01T12:06:25;6.57;;;3.65;;
26060;SDS011;36331;51.378;0.018;2023-04-01T12:09:01;8.77;;;4.28;;
26060;SDS011;36331;51.378;0.018;2023-04-01T12:11:34;7.93;;;3.75;;
26060;SDS011;36331;51.378;0.018;2023-04-01T12:14:09;5.80;;;3.40;;
26060;SDS011;36331;51.378;0.018;2023-04-01T12:16:44;4.95;;;2.97;;
26060;SDS011;36331;51.378;0.018;2023-04-01T12:19:19;5.85;;;2.80;;
26060;SDS011;36331;51.378;0.018;2023-04-01T12:21:55;11.02;;;3.30;;
26060;SDS011;36331;51.378;0.018;2023-04-01T12:24:33;6.63;;;3.10;;
26060;SDS011;36331;51.378;0.018;2023-04-01T12:27:17;7.30;;;3.92;;
26060;SDS011;36331;51.378;0.018;2023-04-01T12:30:01;8.80;;;4.72;;
26060;SDS011;36331;51.378;0.018;2023-04-01T12:32:35;9.20;;;3.47;;
26060;SDS011;36331;51.378;0.018;2023-04-01T12:35:20;5.40;;;3.83;;
26060;SDS011;36331;51.378;0.018;2023-04-01T12:37:54;4.20;;;2.67;;
26060;SDS011;36331;51.378;0.018;2023-04-01T12:40:31;7.65;;;2.50;;
26060;SDS011;36331;51.378;0.018;2023-04-01T12:43:05;5.43;;;3.00;;
26060;SDS011;36331;51.378;0.018;2023-04-01T12:45:42;10.80;;;2.95;;
26060;SDS011;36331;51.378;0.018;2023-04-01T12:48:23;4.90;;;2.88;;
26060;SDS011;36331;51.378;0.018;2023-04-01T12:53:48;6.18;;;2.42;;
26060;SDS011;36331;51.378;0.018;2023-04-01T12:56:27;7.35;;;2.92;;
26060;SDS011;36331;51.378;0.018;2023-04-01T12:59:07;9.23;;;2.53;;
26060;SDS011;36331;51.378;0.018;2023-04-01T13:01:46;4.80;;;2.20;;
26060;SDS011;36331;51.378;0.018;2023-04-01T13:04:26;6.00;;;2.30;;
26060;SDS011;36331;51.378;0.018;2023-04-01T13:07:01;9.23;;;3.10;;
26060;SDS011;36331;51.378;0.018;2023-04-01T13:09:38;4.28;;;1.80;;
26060;SDS011;36331;51.378;0.018;2023-04-01T13:12:18;4.47;;;1.77;;
26060;SDS011;36331;51.378;0.018;2023-04-01T13:17:40;3.97;;;1.88;;
26060;SDS011;36331;51.378;0.018;2023-04-01T13:20:14;3.42;;;2.28;;
26060;SDS011;36331;51.378;0.018;2023-04-01T13:22:48;4.35;;;1.92;;
26060;SDS011;36331;51.378;0.018;2023-04-01T13:25:24;4.95;;;1.75;;
26060;SDS011;36331;51.378;0.018;2023-04-01T13:27:58;4.97;;;2.28;;
26060;SDS011;36331;51.378;0.018;2023-04-01T13:30:33;4.20;;;1.67;;
26060;SDS011;36331;51.378;0.018;2023-04-01T13:33:09;4.57;;;2.55;;
26060;SDS011;36331;51.378;0.018;2023-04-01T13:35:42;8.43;;;2.78;;
26060;SDS011;36331;51.378;0.018;2023-04-01T13:38:32;4.28;;;2.47;;
26060;SDS011;36331;51.378;0.018;2023-04-01T13:41:08;2.75;;;1.77;;
26060;SDS011;36331;51.378;0.018;2023-04-01T13:43:41;2.53;;;1.35;;
26060;SDS011;36331;51.378;0.018;2023-04-01T13:48:45;2.00;;;1.45;;
26060;SDS011;36331;51.378;0.018;2023-04-01T13:51:31;4.25;;;2.03;;
26060;SDS011;36331;51.378;0.018;2023-04-01T13:54:13;3.47;;;1.60;;
26060;SDS011;36331;51.378;0.018;2023-04-01T13:56:50;2.95;;;1.63;;
26060;SDS011;36331;51.378;0.018;2023-04-01T14:05:07;4.15;;;1.70;;
26060;SDS011;36331;51.378;0.018;2023-04-01T14:07:41;3.50;;;1.50;;
26060;SDS011;36331;51.378;0.018;2023-04-01T14:10:18;2.95;;;1.35;;
26060;SDS011;36331;51.378;0.018;2023-04-01T14:12:50;5.90;;;2.15;;
26060;SDS011;36331;51.378;0.018;2023-04-01T14:15:29;2.30;;;1.13;;
26060;SDS011;36331;51.378;0.018;2023-04-01T14:20:51;4.53;;;1.88;;
26060;SDS011;36331;51.378;0.018;2023-04-01T14:23:35;2.92;;;1.20;;
26060;SDS011;36331;51.378;0.018;2023-04-01T14:26:09;2.15;;;1.10;;
26060;SDS011;36331;51.378;0.018;2023-04-01T14:28:43;1.80;;;1.25;;
26060;SDS011;36331;51.378;0.018;2023-04-01T14:34:22;4.47;;;1.60;;
26060;SDS011;36331;51.378;0.018;2023-04-01T14:36:58;6.10;;;1.92;;
26060;SDS011;36331;51.378;0.018;2023-04-01T14:42:18;2.80;;;1.20;;
26060;SDS011;36331;51.378;0.018;2023-04-01T14:45:01;4.78;;;1.67;;
26060;SDS011;36331;51.378;0.018;2023-04-01T14:47:36;4.28;;;1.40;;
26060;SDS011;36331;51.378;0.018;2023-04-01T14:50:09;3.25;;;1.15;;
26060;SDS011;36331;51.378;0.018;2023-04-01T14:52:42;3.85;;;1.63;;
26060;SDS011;36331;51.378;0.018;2023-04-01T14:55:20;2.43;;;1.67;;
26060;SDS011;36331;51.378;0.018;2023-04-01T15:00:53;4.22;;;1.52;;
26060;SDS011;36331;51.378;0.018;2023-04-01T15:03:25;4.13;;;1.60;;
26060;SDS011;36331;51.378;0.018;2023-04-01T15:05:56;3.42;;;1.70;;
26060;SDS011;36331;51.378;0.018;2023-04-01T15:08:29;4.82;;;2.13;;
26060;SDS011;36331;51.378;0.018;2023-04-01T15:11:14;3.20;;;1.77;;
26060;SDS011;36331;51.378;0.018;2023-04-01T15:13:51;3.35;;;1.83;;
26060;SDS011;36331;51.378;0.018;2023-04-01T15:16:25;3.95;;;2.47;;
26060;SDS011;36331;51.378;0.018;2023-04-01T15:18:59;4.90;;;1.75;;
26060;SDS011;36331;51.378;0.018;2023-04-01T15:21:32;4.35;;;1.98;;
26060;SDS011;36331;51.378;0.018;2023-04-01T15:24:06;2.38;;;1.70;;
26060;SDS011;36331;51.378;0.018;2023-04-01T15:26:39;5.50;;;2.35;;
26060;SDS011;36331;51.378;0.018;2023-04-01T15:29:18;2.95;;;1.98;;
26060;SDS011;36331;51.378;0.018;2023-04-01T15:31:53;3.08;;;2.00;;
26060;SDS011;36331;51.378;0.018;2023-04-01T15:34:29;4.90;;;3.10;;
26060;SDS011;36331;51.378;0.018;2023-04-01T15:37:02;5.53;;;2.65;;
26060;SDS011;36331;51.378;0.018;2023-04-01T15:39:38;4.20;;;2.08;;
26060;SDS011;36331;51.378;0.018;2023-04-01T15:42:16;13.15;;;3.67;;
26060;SDS011;36331;51.378;0.018;2023-04-01T15:44:52;4.65;;;2.85;;
26060;SDS011;36331;51.378;0.018;2023-04-01T15:47:30;3.40;;;2.78;;
26060;SDS011;36331;51.378;0.018;2023-04-01T15:50:06;5.00;;;3.47;;
26060;SDS011;36331;51.378;0.018;2023-04-01T15:52:43;6.30;;;2.60;;
26060;SDS011;36331;51.378;0.018;2023-04-01T15:55:19;5.35;;;2.92;;
26060;SDS011;36331;51.378;0.018;2023-04-01T15:57:52;4.33;;;2.60;;
26060;SDS011;36331;51.378;0.018;2023-04-01T16:00:26;6.68;;;3.05;;
26060;SDS011;36331;51.378;0.018;2023-04-01T16:05:33;3.58;;;2.08;;
26060;SDS011;36331;51.378;0.018;2023-04-01T16:08:09;4.22;;;2.88;;
26060;SDS011;36331;51.378;0.018;2023-04-01T16:10:45;5.50;;;2.95;;
26060;SDS011;36331;51.378;0.018;2023-04-01T16:13:22;5.28;;;2.22;;
26060;SDS011;36331;51.378;0.018;2023-04-01T16:15:55;5.68;;;2.50;;
26060;SDS011;36331;51.378;0.018;2023-04-01T16:18:32;6.10;;;2.75;;
26060;SDS011;36331;51.378;0.018;2023-04-01T16:21:06;3.55;;;2.58;;
26060;SDS011;36331;51.378;0.018;2023-04-01T16:23:39;4.70;;;2.80;;
26060;SDS011;36331;51.378;0.018;2023-04-01T16:26:13;4.80;;;2.63;;
26060;SDS011;36331;51.378;0.018;2023-04-01T16:28:48;3.72;;;2.78;;
26060;SDS011;36331;51.378;0.018;2023-04-01T16:31:25;5.95;;;3.30;;
26060;SDS011;36331;51.378;0.018;2023-04-01T16:33:58;5.15;;;3.00;;
26060;SDS011;36331;51.378;0.018;2023-04-01T16:36:32;5.82;;;3.67;;
26060;SDS011;36331;51.378;0.018;2023-04-01T16:39:15;5.95;;;3.55;;
26060;SDS011;36331;51.378;0.018;2023-04-01T16:41:49;6.53;;;3.50;;
26060;SDS011;36331;51.378;0.018;2023-04-01T16:44:21;4.55;;;2.75;;
26060;SDS011;36331;51.378;0.018;2023-04-01T16:46:52;4.72;;;2.20;;
26060;SDS011;36331;51.378;0.018;2023-04-01T16:49:23;4.93;;;3.30;;
26060;SDS011;36331;51.378;0.018;2023-04-01T16:51:57;6.07;;;4.18;;
26060;SDS011;36331;51.378;0.018;2023-04-01T16:54:28;4.88;;;2.88;;
26060;SDS011;36331;51.378;0.018;2023-04-01T16:57:04;4.95;;;3.33;;